createdAt,value
2022-11-25T00:01:43.208Z,7.10
2022-11-25T00:04:15.694Z,7.10
2022-11-25T00:06:48.244Z,7.20
2022-11-25T00:09:20.845Z,7.20
2022-11-25T00:11:53.429Z,7.10
2022-11-25T00:14:26.025Z,7.10
2022-11-25T00:16:58.541Z,7.10
2022-11-25T00:19:31.381Z,7.10
2022-11-25T00:22:03.860Z,7.10
2022-11-25T00:24:36.680Z,7.10
2022-11-25T00:27:09.608Z,7.10
2022-11-25T00:29:44.191Z,7.10
2022-11-25T00:32:16.717Z,7.10
2022-11-25T00:34:49.321Z,7.10
2022-11-25T00:37:21.875Z,7.00
2022-11-25T00:39:54.452Z,7.00
2022-11-25T00:42:42.149Z,7.00
2022-11-25T00:45:14.693Z,7.00
2022-11-25T00:47:47.337Z,7.00
2022-11-25T00:50:20.059Z,7.00
2022-11-25T00:52:52.674Z,7.00
2022-11-25T00:55:25.799Z,7.00
2022-11-25T00:57:58.379Z,7.00
2022-11-25T01:00:31.437Z,7.00
2022-11-25T01:03:03.938Z,7.00
2022-11-25T01:05:38.615Z,7.00
2022-11-25T01:08:11.108Z,7.00
2022-11-25T01:10:43.816Z,7.00
2022-11-25T01:13:16.539Z,7.00
2022-11-25T01:15:49.067Z,6.90
2022-11-25T01:18:21.636Z,6.90
2022-11-25T01:20:54.098Z,6.90
2022-11-25T01:23:28.876Z,6.90
2022-11-25T01:26:03.431Z,6.90
2022-11-25T01:28:35.980Z,6.90
2022-11-25T01:31:14.801Z,7.00
2022-11-25T01:33:52.646Z,7.00
2022-11-25T01:36:25.879Z,7.00
2022-11-25T01:39:00.737Z,7.00
2022-11-25T01:41:35.125Z,7.00
2022-11-25T01:44:17.927Z,7.00
2022-11-25T01:47:03.871Z,7.00
2022-11-25T01:49:44.478Z,7.00
2022-11-25T01:52:36.873Z,7.00
2022-11-25T01:55:17.979Z,7.00
2022-11-25T01:57:58.968Z,7.00
2022-11-25T02:00:32.305Z,7.00
2022-11-25T02:03:05.767Z,7.00
2022-11-25T02:05:56.178Z,7.00
2022-11-25T02:08:30.786Z,7.00
2022-11-25T02:11:05.239Z,7.00
2022-11-25T02:13:39.027Z,7.00
2022-11-25T02:16:12.784Z,7.00
2022-11-25T02:18:45.701Z,7.00
2022-11-25T02:21:26.296Z,6.90
2022-11-25T02:24:05.836Z,7.00
2022-11-25T02:26:39.226Z,7.00
2022-11-25T02:29:13.564Z,7.00
2022-11-25T02:31:51.728Z,7.00
2022-11-25T02:34:24.539Z,7.00
2022-11-25T02:36:57.173Z,7.00
2022-11-25T02:39:30.196Z,7.00
2022-11-25T02:42:02.925Z,7.00
2022-11-25T02:44:35.774Z,7.00
2022-11-25T02:47:08.590Z,7.00
2022-11-25T02:49:43.940Z,7.00
2022-11-25T02:52:16.740Z,7.00
2022-11-25T02:54:49.684Z,7.00
2022-11-25T02:57:22.190Z,7.00
2022-11-25T02:59:54.713Z,6.90
2022-11-25T03:02:27.246Z,6.90
2022-11-25T03:04:59.765Z,6.90
2022-11-25T03:07:32.324Z,6.90
2022-11-25T03:10:06.800Z,6.90
2022-11-25T03:12:40.541Z,6.90
2022-11-25T03:15:13.571Z,6.80
2022-11-25T03:17:46.390Z,6.80
2022-11-25T03:20:19.415Z,6.70
2022-11-25T03:22:53.609Z,6.70
2022-11-25T03:25:26.204Z,6.60
2022-11-25T03:28:00.595Z,6.60
2022-11-25T03:30:33.474Z,6.60
2022-11-25T03:33:07.735Z,6.60
2022-11-25T03:35:40.495Z,6.60
2022-11-25T03:38:16.350Z,6.20
2022-11-25T03:40:49.628Z,6.60
2022-11-25T03:43:23.155Z,6.70
2022-11-25T03:45:57.398Z,6.70
2022-11-25T03:48:30.050Z,6.60
2022-11-25T03:51:03.171Z,6.60
2022-11-25T03:53:36.396Z,6.60
2022-11-25T03:56:11.879Z,6.60
2022-11-25T03:58:44.705Z,6.60
2022-11-25T04:01:18.743Z,6.60
2022-11-25T04:03:51.816Z,6.60
2022-11-25T04:06:24.418Z,6.50
2022-11-25T04:08:59.548Z,6.50
2022-11-25T04:11:48.564Z,6.50
2022-11-25T04:14:21.724Z,6.40
2022-11-25T04:16:54.460Z,6.40
2022-11-25T04:19:27.142Z,6.40
2022-11-25T04:21:59.910Z,6.40
2022-11-25T04:24:34.052Z,6.30
2022-11-25T04:27:07.145Z,6.30
2022-11-25T04:29:41.126Z,6.30
2022-11-25T04:32:15.043Z,6.30
2022-11-25T04:34:47.647Z,6.30
2022-11-25T04:37:20.528Z,6.30
2022-11-25T04:39:53.854Z,6.40
2022-11-25T04:42:34.855Z,6.30
2022-11-25T04:45:33.397Z,6.30
2022-11-25T04:48:06.217Z,6.40
2022-11-25T04:50:39.989Z,6.30
2022-11-25T04:53:17.152Z,6.30
2022-11-25T04:55:49.653Z,6.30
2022-11-25T04:58:42.160Z,6.30
2022-11-25T05:01:15.011Z,6.30
2022-11-25T05:03:57.353Z,6.30
2022-11-25T05:06:33.557Z,6.30
2022-11-25T05:09:07.100Z,6.30
2022-11-25T05:11:42.447Z,6.20
2022-11-25T05:14:15.402Z,6.20
2022-11-25T05:16:47.948Z,6.20
2022-11-25T05:19:20.717Z,6.10
2022-11-25T05:21:54.140Z,6.10
2022-11-25T05:24:26.838Z,6.10
2022-11-25T05:26:59.664Z,6.10
2022-11-25T05:29:32.403Z,6.00
2022-11-25T05:32:06.564Z,6.00
2022-11-25T05:34:39.544Z,6.00
2022-11-25T05:37:17.666Z,6.00
2022-11-25T05:39:59.176Z,6.00
2022-11-25T05:42:32.303Z,6.00
2022-11-25T05:45:09.300Z,6.00
2022-11-25T05:47:42.042Z,6.00
2022-11-25T05:50:16.359Z,6.00
2022-11-25T05:53:09.302Z,6.10
2022-11-25T05:55:41.946Z,6.00
2022-11-25T05:58:23.991Z,6.00
2022-11-25T06:01:00.268Z,6.00
2022-11-25T06:03:33.779Z,6.00
2022-11-25T06:06:08.330Z,6.00
2022-11-25T06:08:41.148Z,6.00
2022-11-25T06:11:18.166Z,6.00
2022-11-25T06:13:50.911Z,6.00
2022-11-25T06:16:24.451Z,6.00
2022-11-25T06:19:08.253Z,5.90
2022-11-25T06:21:42.351Z,5.90
2022-11-25T06:24:14.866Z,5.90
2022-11-25T06:26:49.877Z,5.80
2022-11-25T06:29:22.639Z,5.70
2022-11-25T06:31:56.706Z,5.70
2022-11-25T06:34:43.199Z,5.70
2022-11-25T06:37:27.722Z,5.70
2022-11-25T06:40:00.283Z,5.70
2022-11-25T06:42:33.180Z,5.70
2022-11-25T06:45:07.118Z,5.60
2022-11-25T06:47:39.975Z,5.60
2022-11-25T06:50:12.602Z,5.60
2022-11-25T06:52:45.303Z,5.60
2022-11-25T06:55:18.063Z,5.60
2022-11-25T06:57:53.299Z,5.60
2022-11-25T07:00:28.474Z,5.60
2022-11-25T07:03:57.330Z,5.60
2022-11-25T07:07:44.417Z,5.60
2022-11-25T07:11:31.769Z,5.60
2022-11-25T07:15:18.912Z,5.60
2022-11-25T07:18:10.197Z,5.60
2022-11-25T07:20:42.907Z,5.70
2022-11-25T07:23:15.780Z,5.70
2022-11-25T07:25:48.397Z,5.70
2022-11-25T07:28:21.124Z,5.70
2022-11-25T07:33:47.408Z,5.80
2022-11-25T07:36:20.479Z,5.70
2022-11-25T07:38:53.406Z,5.80
2022-11-25T07:41:27.840Z,5.80
2022-11-25T07:44:03.443Z,5.80
2022-11-25T07:46:44.405Z,5.90
2022-11-25T07:49:21.134Z,5.90
2022-11-25T07:51:56.912Z,5.90
2022-11-25T07:54:29.704Z,5.90
2022-11-25T07:57:02.294Z,6.00
2022-11-25T07:59:36.537Z,6.00
2022-11-25T08:02:10.855Z,6.00
2022-11-25T08:04:43.690Z,6.10
2022-11-25T08:07:16.337Z,6.10
2022-11-25T08:09:49.366Z,6.20
2022-11-25T08:12:22.096Z,6.30
2022-11-25T08:14:54.764Z,6.40
2022-11-25T08:17:27.409Z,6.50
2022-11-25T08:20:00.703Z,6.50
2022-11-25T08:22:33.513Z,6.60
2022-11-25T08:25:06.711Z,6.70
2022-11-25T08:27:39.357Z,6.80
2022-11-25T08:30:13.545Z,6.80
2022-11-25T08:32:46.101Z,6.90
2022-11-25T08:35:19.440Z,7.00
2022-11-25T08:37:52.477Z,7.00
2022-11-25T08:40:25.192Z,7.10
2022-11-25T08:42:58.130Z,7.20
2022-11-25T08:45:31.334Z,7.20
2022-11-25T08:48:04.129Z,7.20
2022-11-25T08:50:37.262Z,7.10
2022-11-25T08:53:10.133Z,7.20
2022-11-25T08:55:42.919Z,7.20
2022-11-25T08:58:15.607Z,7.30
2022-11-25T09:00:48.598Z,7.30
2022-11-25T09:03:22.965Z,7.30
2022-11-25T09:05:55.853Z,7.40
2022-11-25T09:08:29.228Z,7.40
2022-11-25T09:11:02.230Z,7.50
2022-11-25T09:13:35.662Z,7.50
2022-11-25T09:16:09.786Z,7.60
2022-11-25T09:18:42.720Z,7.70
2022-11-25T09:21:17.995Z,7.70
2022-11-25T09:23:52.458Z,7.70
2022-11-25T09:26:28.874Z,7.80
2022-11-25T09:29:01.542Z,7.90
2022-11-25T09:31:34.852Z,7.90
2022-11-25T09:34:09.081Z,8.00
2022-11-25T09:36:41.770Z,8.00
2022-11-25T09:39:14.410Z,8.00
2022-11-25T09:42:20.878Z,8.00
2022-11-25T09:45:09.184Z,8.10
2022-11-25T09:47:58.865Z,8.20
2022-11-25T09:50:42.537Z,8.30
2022-11-25T09:53:34.225Z,8.30
2022-11-25T09:56:19.590Z,8.40
2022-11-25T09:59:00.523Z,8.50
2022-11-25T10:01:49.687Z,8.50
2022-11-25T10:04:28.786Z,8.60
2022-11-25T10:07:04.447Z,8.60
2022-11-25T10:09:37.950Z,8.70
2022-11-25T10:12:26.457Z,8.80
2022-11-25T10:15:03.625Z,8.90
2022-11-25T10:18:18.393Z,8.90
2022-11-25T10:20:53.318Z,9.00
2022-11-25T10:23:32.656Z,9.00
2022-11-25T10:26:22.356Z,9.00
2022-11-25T10:29:18.595Z,9.10
2022-11-25T10:31:57.856Z,9.20
2022-11-25T10:34:42.523Z,9.20
2022-11-25T10:37:29.416Z,9.20
2022-11-25T10:40:02.283Z,9.30
2022-11-25T10:42:37.624Z,9.40
2022-11-25T10:45:10.532Z,9.50
2022-11-25T10:47:59.361Z,9.50
2022-11-25T10:50:39.166Z,9.60
2022-11-25T10:53:18.858Z,9.60
2022-11-25T10:56:11.908Z,9.70
2022-11-25T10:58:45.019Z,9.70
2022-11-25T11:01:21.001Z,9.70
2022-11-25T11:04:21.827Z,9.70
2022-11-25T11:07:09.299Z,9.70
2022-11-25T11:09:43.460Z,9.70
2022-11-25T11:12:22.160Z,9.80
2022-11-25T11:15:15.362Z,9.80
2022-11-25T11:17:48.695Z,9.90
2022-11-25T11:20:29.685Z,10.00
2022-11-25T11:23:10.796Z,10.00
2022-11-25T11:26:00.683Z,10.10
2022-11-25T11:28:37.350Z,10.10
2022-11-25T11:31:19.824Z,10.10
2022-11-25T11:33:54.435Z,10.10
2022-11-25T11:36:30.101Z,10.10
2022-11-25T11:39:19.638Z,10.10
2022-11-25T11:42:14.510Z,10.10
2022-11-25T11:45:13.124Z,10.20
2022-11-25T11:48:19.050Z,10.20
2022-11-25T11:51:03.343Z,10.10
2022-11-25T11:53:53.837Z,10.10
2022-11-25T11:56:44.594Z,10.10
2022-11-25T11:59:49.822Z,10.10
2022-11-25T12:02:30.378Z,10.20
2022-11-25T12:05:19.518Z,10.20
2022-11-25T12:07:56.002Z,10.20
2022-11-25T12:10:36.992Z,10.20
2022-11-25T12:13:23.538Z,10.20
2022-11-25T12:16:02.371Z,10.20
2022-11-25T12:18:56.157Z,10.20
2022-11-25T12:21:53.264Z,10.10
2022-11-25T12:24:41.206Z,10.10
2022-11-25T12:27:18.638Z,10.10
2022-11-25T12:29:53.551Z,10.00
2022-11-25T12:32:42.840Z,10.00
2022-11-25T12:35:18.784Z,10.00
2022-11-25T12:38:03.258Z,9.90
2022-11-25T12:40:57.567Z,9.90
2022-11-25T12:43:50.750Z,9.90
2022-11-25T12:46:37.018Z,9.80
2022-11-25T12:49:18.502Z,9.80
2022-11-25T12:52:20.276Z,9.80
2022-11-25T12:55:06.307Z,9.80
2022-11-25T12:57:49.149Z,9.90
2022-11-25T13:00:44.239Z,9.90
2022-11-25T13:03:42.332Z,9.90
2022-11-25T13:06:24.777Z,9.90
2022-11-25T13:09:02.200Z,9.90
2022-11-25T13:11:51.840Z,9.90
2022-11-25T13:14:30.832Z,9.80
2022-11-25T13:17:04.626Z,9.80
2022-11-25T13:19:37.921Z,9.80
2022-11-25T13:22:30.849Z,9.70
2022-11-25T13:25:03.697Z,9.70
2022-11-25T13:27:40.638Z,9.70
2022-11-25T13:30:33.123Z,9.70
2022-11-25T13:33:12.435Z,9.70
2022-11-25T13:35:55.910Z,9.60
2022-11-25T13:38:38.319Z,9.60
2022-11-25T13:41:11.780Z,9.50
2022-11-25T13:44:14.240Z,9.50
2022-11-25T13:46:51.986Z,9.50
2022-11-25T13:49:36.984Z,9.50
2022-11-25T13:52:13.828Z,9.40
2022-11-25T13:54:51.359Z,9.40
2022-11-25T13:57:27.166Z,9.40
2022-11-25T14:00:07.241Z,9.40
2022-11-25T14:02:47.503Z,9.40
2022-11-25T14:05:20.348Z,9.40
2022-11-25T14:07:54.902Z,9.40
2022-11-25T14:10:46.115Z,9.40
2022-11-25T14:13:22.807Z,9.40
2022-11-25T14:16:26.531Z,9.40
2022-11-25T14:19:49.474Z,9.40
2022-11-25T14:22:40.282Z,9.40
2022-11-25T14:25:31.223Z,9.40
2022-11-25T14:28:14.663Z,9.40
2022-11-25T14:30:53.693Z,9.40
2022-11-25T14:33:35.793Z,9.40
2022-11-25T14:36:14.844Z,9.40
2022-11-25T14:38:55.383Z,9.40
2022-11-25T14:41:37.614Z,9.40
2022-11-25T14:44:18.938Z,9.40
2022-11-25T14:46:54.952Z,9.40
2022-11-25T14:50:05.764Z,9.40
2022-11-25T14:52:47.998Z,9.40
2022-11-25T14:55:30.989Z,9.40
2022-11-25T14:58:04.237Z,9.40
2022-11-25T15:00:53.429Z,9.40
2022-11-25T15:03:26.249Z,9.30
2022-11-25T15:06:04.449Z,9.30
2022-11-25T15:08:44.358Z,9.30
2022-11-25T15:11:23.563Z,9.30
2022-11-25T15:14:03.796Z,9.20
2022-11-25T15:16:41.528Z,9.20
2022-11-25T15:19:18.836Z,9.20
2022-11-25T15:24:55.804Z,9.10
2022-11-25T15:27:51.096Z,9.10
2022-11-25T15:30:27.996Z,9.10
2022-11-25T15:33:03.799Z,9.10
2022-11-25T15:35:36.526Z,9.00
2022-11-25T15:38:42.023Z,9.00
2022-11-25T15:41:17.634Z,9.00
2022-11-25T15:43:56.100Z,9.00
2022-11-25T15:46:34.312Z,9.00
2022-11-25T15:49:10.787Z,8.90
2022-11-25T15:51:49.332Z,8.90
2022-11-25T15:54:28.580Z,8.90
2022-11-25T15:57:12.318Z,8.90
2022-11-25T15:59:52.561Z,8.90
2022-11-25T16:02:42.908Z,8.80
2022-11-25T16:05:18.577Z,8.80
2022-11-25T16:07:52.068Z,8.80
2022-11-25T16:10:33.069Z,8.80
2022-11-25T16:13:23.215Z,8.80
2022-11-25T16:16:12.778Z,8.80
2022-11-25T16:19:09.197Z,8.80
2022-11-25T16:21:47.859Z,8.70
2022-11-25T16:24:22.662Z,8.70
2022-11-25T16:27:01.109Z,8.70
2022-11-25T16:29:39.462Z,8.70
2022-11-25T16:32:20.571Z,8.70
2022-11-25T16:34:56.994Z,8.60
2022-11-25T16:37:29.787Z,8.60
2022-11-25T16:40:02.297Z,8.60
2022-11-25T16:42:35.906Z,8.60
2022-11-25T16:45:26.473Z,8.60
2022-11-25T16:47:59.182Z,8.60
2022-11-25T16:50:31.951Z,8.60
2022-11-25T16:53:04.660Z,8.60
2022-11-25T16:55:40.832Z,8.60
2022-11-25T16:58:23.052Z,8.60
2022-11-25T17:01:00.096Z,8.50
2022-11-25T17:03:32.807Z,8.50
2022-11-25T17:06:27.581Z,8.50
2022-11-25T17:09:01.391Z,8.50
2022-11-25T17:11:46.142Z,8.50
2022-11-25T17:14:27.303Z,8.50
2022-11-25T17:17:01.193Z,8.50
2022-11-25T17:19:35.271Z,8.50
2022-11-25T17:22:19.052Z,8.50
2022-11-25T17:24:51.815Z,8.50
2022-11-25T17:27:32.248Z,8.50
2022-11-25T17:30:07.728Z,8.60
2022-11-25T17:32:40.549Z,8.50
2022-11-25T17:35:19.153Z,8.50
2022-11-25T17:37:51.798Z,8.60
2022-11-25T17:40:25.200Z,8.60
2022-11-25T17:42:58.001Z,8.50
2022-11-25T17:45:30.800Z,8.50
2022-11-25T17:48:10.832Z,8.50
2022-11-25T17:50:47.688Z,8.40
2022-11-25T17:53:21.332Z,8.40
2022-11-25T17:55:54.495Z,8.40
2022-11-25T17:58:29.486Z,8.40
2022-11-25T18:01:05.661Z,8.40
2022-11-25T18:03:38.974Z,8.40
2022-11-25T18:06:12.474Z,8.40
2022-11-25T18:08:44.893Z,8.40
2022-11-25T18:11:20.971Z,8.40
2022-11-25T18:13:53.794Z,8.40
2022-11-25T18:16:29.971Z,8.40
2022-11-25T18:19:02.609Z,8.40
2022-11-25T18:21:35.534Z,8.40
2022-11-25T18:24:08.743Z,8.40
2022-11-25T18:26:47.571Z,8.40
2022-11-25T18:29:28.189Z,8.40
2022-11-25T18:32:01.022Z,8.40
2022-11-25T18:34:33.564Z,8.40
2022-11-25T18:37:06.249Z,8.40
2022-11-25T18:39:39.188Z,8.30
2022-11-25T18:42:24.535Z,8.40
2022-11-25T18:44:57.542Z,8.40
2022-11-25T18:47:30.248Z,8.40
2022-11-25T18:50:02.806Z,8.40
2022-11-25T18:52:35.349Z,8.40
2022-11-25T18:55:08.813Z,8.40
2022-11-25T18:57:43.015Z,8.50
2022-11-25T19:00:36.239Z,8.50
2022-11-25T19:03:19.189Z,8.40
2022-11-25T19:05:54.659Z,8.50
2022-11-25T19:08:27.585Z,8.40
2022-11-25T19:11:00.476Z,8.40
2022-11-25T19:13:36.997Z,8.40
2022-11-25T19:16:14.174Z,8.40
2022-11-25T19:18:48.260Z,8.40
2022-11-25T19:21:21.963Z,8.40
2022-11-25T19:23:55.191Z,8.40
2022-11-25T19:26:31.602Z,8.40
2022-11-25T19:29:08.304Z,8.40
2022-11-25T19:31:41.372Z,8.40
2022-11-25T19:34:26.819Z,8.40
2022-11-25T19:36:59.439Z,8.30
2022-11-25T19:39:36.096Z,8.40
2022-11-25T19:42:09.882Z,8.40
2022-11-25T19:44:43.442Z,8.40
2022-11-25T19:47:25.461Z,8.30
2022-11-25T19:50:01.765Z,8.40
2022-11-25T19:52:37.978Z,8.30
2022-11-25T19:55:19.677Z,8.30
2022-11-25T19:57:53.185Z,8.30
2022-11-25T20:00:26.588Z,8.30
2022-11-25T20:03:00.380Z,8.40
2022-11-25T20:05:37.214Z,8.30
2022-11-25T20:08:19.001Z,8.30
2022-11-25T20:10:51.984Z,8.30
2022-11-25T20:13:26.319Z,8.30
2022-11-25T20:15:59.760Z,8.30
2022-11-25T20:18:32.612Z,8.30
2022-11-25T20:21:06.593Z,8.30
2022-11-25T20:23:44.336Z,8.30
2022-11-25T20:26:27.262Z,8.30
2022-11-25T20:28:59.889Z,8.30
2022-11-25T20:31:32.856Z,8.30
2022-11-25T20:34:05.615Z,8.30
2022-11-25T20:36:40.462Z,8.30
2022-11-25T20:39:19.314Z,8.30
2022-11-25T20:41:53.175Z,8.30
2022-11-25T20:44:28.275Z,8.30
2022-11-25T20:47:00.827Z,8.30
2022-11-25T20:49:34.524Z,8.30
2022-11-25T20:52:07.337Z,8.30
2022-11-25T20:54:40.103Z,8.30
2022-11-25T20:57:13.119Z,8.30
2022-11-25T20:59:46.032Z,8.30
2022-11-25T21:02:22.008Z,8.30
2022-11-25T21:04:55.076Z,8.30
2022-11-25T21:07:28.018Z,8.30
2022-11-25T21:10:00.746Z,8.30
2022-11-25T21:12:33.414Z,8.30
2022-11-25T21:15:14.276Z,8.30
2022-11-25T21:17:46.825Z,8.30
2022-11-25T21:20:20.348Z,8.30
2022-11-25T21:22:58.276Z,8.30
2022-11-25T21:25:30.893Z,8.40
2022-11-25T21:28:04.296Z,8.40
2022-11-25T21:30:40.334Z,8.40
2022-11-25T21:33:13.796Z,8.40
2022-11-25T21:35:48.367Z,8.40
2022-11-25T21:38:24.635Z,8.40
2022-11-25T21:40:59.121Z,8.30
2022-11-25T21:43:34.511Z,8.30
2022-11-25T21:46:13.430Z,8.40
2022-11-25T21:48:46.384Z,8.30
2022-11-25T21:51:22.068Z,8.40
2022-11-25T21:53:54.970Z,8.30
2022-11-25T21:56:34.706Z,8.30
2022-11-25T21:59:14.587Z,8.30
2022-11-25T22:01:49.187Z,8.40
2022-11-25T22:04:22.833Z,8.40
2022-11-25T22:06:55.413Z,8.40
2022-11-25T22:09:28.077Z,8.30
2022-11-25T22:12:01.765Z,8.30
2022-11-25T22:14:38.200Z,8.40
2022-11-25T22:17:17.843Z,8.40
2022-11-25T22:19:50.454Z,8.40
2022-11-25T22:22:23.219Z,8.40
2022-11-25T22:24:55.811Z,8.40
2022-11-25T22:27:36.384Z,8.40
2022-11-25T22:30:16.728Z,8.40
2022-11-25T22:32:55.494Z,8.40
2022-11-25T22:35:28.658Z,8.40
2022-11-25T22:38:01.263Z,8.40
2022-11-25T22:40:35.135Z,8.40
2022-11-25T22:43:17.129Z,8.50
2022-11-25T22:45:50.667Z,8.50
2022-11-25T22:48:39.210Z,8.40
2022-11-25T22:51:18.867Z,8.40
2022-11-25T22:53:51.717Z,8.40
2022-11-25T22:56:24.388Z,8.40
2022-11-25T22:59:00.602Z,8.40
2022-11-25T23:01:33.256Z,8.50
2022-11-25T23:04:06.893Z,8.50
2022-11-25T23:06:39.462Z,8.50
2022-11-25T23:09:18.887Z,8.50
2022-11-25T23:11:51.420Z,8.50
2022-11-25T23:14:23.902Z,8.50
2022-11-25T23:16:56.477Z,8.50
2022-11-25T23:19:29.121Z,8.50
2022-11-25T23:22:01.715Z,8.50
2022-11-25T23:24:34.400Z,8.50
2022-11-25T23:27:07.163Z,8.60
2022-11-25T23:29:39.923Z,8.60
2022-11-25T23:32:19.633Z,8.60
2022-11-25T23:34:52.407Z,8.60
2022-11-25T23:37:24.989Z,8.60
2022-11-25T23:39:57.602Z,8.60
2022-11-25T23:42:30.955Z,8.60
2022-11-25T23:45:06.179Z,8.60
2022-11-25T23:47:38.650Z,8.60
2022-11-25T23:50:25.154Z,8.70
2022-11-25T23:53:03.893Z,8.60
2022-11-25T23:55:38.831Z,8.60
2022-11-25T23:58:16.736Z,8.60
